Time;durP1;ratioP1;P1;durP2;ratioP2;P2;SDS_P1;SDS_P2;PMS_P1;PMS_P2;Temp;Humidity;BMP_temperature;BMP_pressure;BME280_temperature;BME280_humidity;BME280_pressure;Samples;Min_cycle;Max_cycle;Signal;HPM_P1;HPM_P2
2022/08/10 00:00:40;;;;;;;5.47;3.85;;;;;;;;;;6184021;28;20042;-68
2022/08/10 00:03:42;;;;;;;7.32;4.13;;;;;;;;;;6182997;28;20057;-70
2022/08/10 00:06:45;;;;;;;7.70;4.20;;;;;;;;;;6183199;28;20230;-70
2022/08/10 00:09:47;;;;;;;5.28;4.55;;;;;;;;;;6182160;28;20065;-68
2022/08/10 00:12:49;;;;;;;8.25;4.50;;;;;;;;;;6182349;28;20233;-69
2022/08/10 00:15:52;;;;;;;5.50;4.40;;;;;;;;;;6182800;28;20054;-69
2022/08/10 00:18:53;;;;;;;8.73;4.15;;;;;;;;;;6183462;28;20094;-69
2022/08/10 00:21:56;;;;;;;10.43;4.57;;;;;;;;;;6181204;28;20046;-69
2022/08/10 00:24:58;;;;;;;6.38;4.20;;;;;;;;;;6183883;28;20050;-68
2022/08/10 00:28:00;;;;;;;8.38;4.50;;;;;;;;;;6179955;28;20058;-69
2022/08/10 00:31:01;;;;;;;5.85;4.10;;;;;;;;;;6182018;28;20066;-68
2022/08/10 00:34:03;;;;;;;5.57;4.05;;;;;;;;;;6182259;28;20109;-68
2022/08/10 00:37:06;;;;;;;7.65;4.00;;;;;;;;;;6182218;28;20211;-67
2022/08/10 00:40:09;;;;;;;4.85;4.00;;;;;;;;;;6184945;28;20233;-69
2022/08/10 00:43:11;;;;;;;4.82;3.80;;;;;;;;;;6183531;28;20077;-67
2022/08/10 00:46:13;;;;;;;5.22;3.47;;;;;;;;;;6182913;28;20380;-69
2022/08/10 00:49:15;;;;;;;4.45;3.55;;;;;;;;;;6181913;28;20121;-69
2022/08/10 00:52:19;;;;;;;6.57;3.80;;;;;;;;;;6182887;28;20053;-69
2022/08/10 00:55:21;;;;;;;4.38;3.22;;;;;;;;;;6181146;28;20066;-68
2022/08/10 00:58:23;;;;;;;5.00;3.97;;;;;;;;;;6178908;28;20660;-68
2022/08/10 01:01:25;;;;;;;7.78;3.78;;;;;;;;;;6181251;28;20050;-69
2022/08/10 01:04:26;;;;;;;6.07;3.80;;;;;;;;;;6181418;28;20101;-69
2022/08/10 01:07:42;;;;;;;6.13;3.63;;;;;;;;;;6179735;28;20047;-68
2022/08/10 01:10:51;;;;;;;5.53;3.60;;;;;;;;;;6180245;28;20077;-69
2022/08/10 01:13:57;;;;;;;4.65;4.07;;;;;;;;;;6179514;28;20321;-68
2022/08/10 01:17:02;;;;;;;7.38;3.78;;;;;;;;;;6184958;28;20093;-68
2022/08/10 01:20:09;;;;;;;4.90;4.22;;;;;;;;;;6177376;28;20341;-69
2022/08/10 01:23:39;;;;;;;6.32;3.55;;;;;;;;;;6180954;28;20118;-68
2022/08/10 01:26:54;;;;;;;4.97;3.85;;;;;;;;;;6180313;28;20093;-69
2022/08/10 01:30:00;;;;;;;5.68;3.47;;;;;;;;;;6179875;28;20233;-70
2022/08/10 01:33:06;;;;;;;8.27;4.55;;;;;;;;;;6181008;28;20421;-70
2022/08/10 01:36:11;;;;;;;5.55;4.07;;;;;;;;;;6178619;28;20047;-68
2022/08/10 01:39:18;;;;;;;4.22;3.80;;;;;;;;;;6182970;28;20353;-68
2022/08/10 01:42:21;;;;;;;4.55;3.80;;;;;;;;;;6180585;28;20233;-68
2022/08/10 01:45:24;;;;;;;;;;;;;;;;;;6183456;28;20326;-71
2022/08/10 01:48:31;;;;;;;6.45;3.42;;;;;;;;;;6173983;28;20136;-69
2022/08/10 01:51:36;;;;;;;4.65;3.67;;;;;;;;;;6171701;28;20093;-69
2022/08/10 01:54:39;;;;;;;4.72;3.50;;;;;;;;;;6176929;28;20360;-68
2022/08/10 01:57:42;;;;;;;5.38;3.80;;;;;;;;;;6173892;28;20047;-69
2022/08/10 02:00:47;;;;;;;6.00;3.40;;;;;;;;;;6180403;28;20061;-68
2022/08/10 02:03:50;;;;;;;6.15;3.55;;;;;;;;;;6179163;28;20215;-68
2022/08/10 02:06:53;;;;;;;5.15;3.60;;;;;;;;;;6180958;28;20061;-69
2022/08/10 02:09:56;;;;;;;;;;;;;;;;;;6182990;28;20071;-70
2022/08/10 02:12:58;;;;;;;4.90;3.47;;;;;;;;;;6186915;28;19940;-68
2022/08/10 02:16:02;;;;;;;4.10;3.55;;;;;;;;;;6183997;28;20831;-68
2022/08/10 02:19:04;;;;;;;6.97;4.05;;;;;;;;;;6188254;28;20066;-68
2022/08/10 02:22:08;;;;;;;5.97;3.92;;;;;;;;;;6185987;28;20053;-68
2022/08/10 02:25:11;;;;;;;4.18;3.70;;;;;;;;;;6181830;28;22772;-69
2022/08/10 02:28:16;;;;;;;4.38;3.72;;;;;;;;;;6189721;28;20345;-68
2022/08/10 02:31:23;;;;;;;3.80;3.45;;;;;;;;;;6190149;28;20109;-69
2022/08/10 02:34:25;;;;;;;5.80;3.75;;;;;;;;;;6185089;28;20054;-68
2022/08/10 02:37:27;;;;;;;4.45;3.50;;;;;;;;;;6185808;28;20069;-69
2022/08/10 02:40:30;;;;;;;4.38;3.92;;;;;;;;;;6185708;28;20054;-68
2022/08/10 02:43:35;;;;;;;7.45;3.92;;;;;;;;;;6181484;28;20269;-69
2022/08/10 02:46:41;;;;;;;4.65;4.25;;;;;;;;;;6190883;28;20061;-68
2022/08/10 02:49:45;;;;;;;5.78;4.80;;;;;;;;;;6189294;28;20093;-69
2022/08/10 02:52:50;;;;;;;5.50;4.20;;;;;;;;;;6184012;28;20082;-68
2022/08/10 02:55:57;;;;;;;4.93;4.43;;;;;;;;;;6184464;28;20055;-70
2022/08/10 02:59:01;;;;;;;5.78;4.20;;;;;;;;;;6184863;28;20055;-69
2022/08/10 03:02:05;;;;;;;5.05;4.13;;;;;;;;;;6191262;28;20049;-69
2022/08/10 03:05:09;;;;;;;5.93;4.88;;;;;;;;;;6186483;28;20743;-68
2022/08/10 03:08:12;;;;;;;5.50;4.55;;;;;;;;;;6183899;28;20051;-67
2022/08/10 03:11:14;;;;;;;;;;;;;;;;;;6184582;28;20051;-68
2022/08/10 03:14:16;;;;;;;6.35;4.47;;;;;;;;;;6182758;28;20354;-68
2022/08/10 03:17:20;;;;;;;5.85;4.50;;;;;;;;;;6187183;28;20051;-69
2022/08/10 03:20:23;;;;;;;5.43;4.65;;;;;;;;;;6184662;28;20042;-71
2022/08/10 03:23:26;;;;;;;5.38;4.75;;;;;;;;;;6184161;28;20050;-68
2022/08/10 03:26:30;;;;;;;6.00;4.72;;;;;;;;;;6183936;28;20061;-69
2022/08/10 03:29:33;;;;;;;5.05;4.32;;;;;;;;;;6183997;28;20265;-68
2022/08/10 03:32:36;;;;;;;5.57;4.60;;;;;;;;;;6187818;28;20365;-69
2022/08/10 03:35:38;;;;;;;5.32;4.45;;;;;;;;;;6184694;28;20164;-68
2022/08/10 03:38:40;;;;;;;6.45;4.97;;;;;;;;;;6183943;28;20061;-69
2022/08/10 03:41:46;;;;;;;6.93;5.10;;;;;;;;;;6186250;28;20061;-69
2022/08/10 03:44:49;;;;;;;9.40;4.75;;;;;;;;;;6183765;28;20049;-68
2022/08/10 03:47:52;;;;;;;4.80;4.30;;;;;;;;;;6182861;28;20322;-68
2022/08/10 03:50:54;;;;;;;8.38;4.50;;;;;;;;;;6183580;28;20049;-70
2022/08/10 03:53:57;;;;;;;5.60;4.60;;;;;;;;;;6182880;28;20062;-68
2022/08/10 03:56:59;;;;;;;4.45;4.05;;;;;;;;;;6183723;28;20062;-68
2022/08/10 04:00:01;;;;;;;5.35;4.13;;;;;;;;;;6184117;28;20329;-72
2022/08/10 04:03:05;;;;;;;5.25;4.30;;;;;;;;;;6185321;28;20234;-68
2022/08/10 04:06:07;;;;;;;4.75;3.60;;;;;;;;;;6184659;28;20108;-68
2022/08/10 04:09:09;;;;;;;6.73;3.40;;;;;;;;;;6182875;28;20062;-69
2022/08/10 04:12:11;;;;;;;4.60;3.67;;;;;;;;;;6181251;28;20093;-68
2022/08/10 04:15:13;;;;;;;5.53;3.55;;;;;;;;;;6184633;28;20089;-67
2022/08/10 04:18:16;;;;;;;4.32;3.20;;;;;;;;;;6182101;28;20059;-68
2022/08/10 04:21:21;;;;;;;4.82;3.30;;;;;;;;;;6180897;28;20046;-71
2022/08/10 04:24:23;;;;;;;4.55;3.40;;;;;;;;;;6183628;28;20051;-71
2022/08/10 04:27:25;;;;;;;5.63;3.20;;;;;;;;;;6182805;28;20072;-68
2022/08/10 04:30:28;;;;;;;7.35;3.83;;;;;;;;;;6180071;28;20054;-68
2022/08/10 04:33:32;;;;;;;6.07;3.50;;;;;;;;;;6180345;28;20186;-70
2022/08/10 04:36:34;;;;;;;4.80;2.83;;;;;;;;;;6187809;28;20062;-67
2022/08/10 04:39:36;;;;;;;9.73;3.93;;;;;;;;;;6183280;28;20047;-68
2022/08/10 04:42:38;;;;;;;4.63;3.28;;;;;;;;;;6178571;28;20055;-67
2022/08/10 04:45:40;;;;;;;4.28;3.10;;;;;;;;;;6181290;28;20116;-69
2022/08/10 04:48:43;;;;;;;5.72;4.05;;;;;;;;;;6181681;28;20387;-68
2022/08/10 04:51:45;;;;;;;4.00;3.08;;;;;;;;;;6180984;28;20454;-68
2022/08/10 04:54:47;;;;;;;4.13;2.72;;;;;;;;;;6182452;28;20738;-69
2022/08/10 04:57:48;;;;;;;4.07;3.10;;;;;;;;;;6181797;28;20054;-68
2022/08/10 05:00:50;;;;;;;6.28;3.30;;;;;;;;;;6180543;28;20280;-68
2022/08/10 05:03:53;;;;;;;4.57;3.05;;;;;;;;;;6180754;28;20051;-68
2022/08/10 05:06:55;;;;;;;3.22;2.60;;;;;;;;;;6179044;28;20388;-68
2022/08/10 05:09:56;;;;;;;4.90;3.38;;;;;;;;;;6182330;28;20059;-68
2022/08/10 05:12:58;;;;;;;6.03;3.13;;;;;;;;;;6180310;28;20074;-69
2022/08/10 05:16:00;;;;;;;6.82;3.33;;;;;;;;;;6181051;28;20046;-68
2022/08/10 05:19:03;;;;;;;6.13;3.38;;;;;;;;;;6179990;28;20218;-69
2022/08/10 05:22:05;;;;;;;4.40;2.95;;;;;;;;;;6178683;28;20042;-69
2022/08/10 05:25:08;;;;;;;5.47;2.97;;;;;;;;;;6182347;28;20060;-69
2022/08/10 05:28:10;;;;;;;4.15;3.05;;;;;;;;;;6179710;28;20048;-70
2022/08/10 05:31:11;;;;;;;6.60;3.10;;;;;;;;;;6180826;28;20342;-69
2022/08/10 05:34:16;;;;;;;6.20;3.28;;;;;;;;;;6182806;28;20214;-68
2022/08/10 05:37:19;;;;;;;7.75;2.90;;;;;;;;;;6181569;28;20061;-68
2022/08/10 05:40:21;;;;;;;;;;;;;;;;;;6180695;28;20046;-69
2022/08/10 05:43:23;;;;;;;9.73;3.08;;;;;;;;;;6180863;28;19926;-71
2022/08/10 05:46:25;;;;;;;8.43;2.95;;;;;;;;;;6184762;28;20078;-69
2022/08/10 05:49:28;;;;;;;8.13;2.72;;;;;;;;;;6189706;28;20050;-68
2022/08/10 05:52:30;;;;;;;6.75;3.00;;;;;;;;;;6186356;28;20062;-70
2022/08/10 05:55:31;;;;;;;5.78;3.20;;;;;;;;;;6185613;28;20047;-68
2022/08/10 05:58:34;;;;;;;4.40;3.17;;;;;;;;;;6186114;28;20099;-69
2022/08/10 06:01:37;;;;;;;5.60;3.00;;;;;;;;;;6184123;28;20054;-69
2022/08/10 06:04:41;;;;;;;5.30;3.30;;;;;;;;;;6184956;28;20054;-70
2022/08/10 06:07:48;;;;;;;4.00;2.63;;;;;;;;;;6184330;28;20046;-68
2022/08/10 06:10:51;;;;;;;5.43;2.90;;;;;;;;;;6186078;28;20043;-68
2022/08/10 06:17:14;;;;;;;5.35;2.58;;;;;;;;;;6187785;28;20066;-68
2022/08/10 06:20:17;;;;;;;5.97;2.80;;;;;;;;;;6186505;28;20075;-68
2022/08/10 06:23:19;;;;;;;6.00;2.38;;;;;;;;;;6185614;28;20055;-68
2022/08/10 06:26:21;;;;;;;4.75;2.90;;;;;;;;;;6184902;28;20043;-69
2022/08/10 06:29:23;;;;;;;6.03;3.67;;;;;;;;;;6186848;28;20077;-69
2022/08/10 06:32:27;;;;;;;12.43;2.70;;;;;;;;;;6184684;28;20054;-67
2022/08/10 06:35:32;;;;;;;3.22;2.55;;;;;;;;;;6187586;28;20683;-67
2022/08/10 06:38:34;;;;;;;3.05;2.50;;;;;;;;;;6186700;28;20098;-69
2022/08/10 06:41:40;;;;;;;4.20;2.22;;;;;;;;;;6183240;28;20102;-68
2022/08/10 06:44:54;;;;;;;3.08;2.10;;;;;;;;;;6187244;28;20062;-68
2022/08/10 06:48:00;;;;;;;3.40;2.38;;;;;;;;;;6185289;28;20062;-67
2022/08/10 06:51:07;;;;;;;3.63;2.25;;;;;;;;;;6187734;28;20058;-68
2022/08/10 06:54:10;;;;;;;3.80;2.33;;;;;;;;;;6183518;28;20053;-68
2022/08/10 06:57:15;;;;;;;5.38;2.30;;;;;;;;;;6183736;28;20992;-68
2022/08/10 07:00:17;;;;;;;3.97;2.30;;;;;;;;;;6184298;28;20046;-68
2022/08/10 07:03:20;;;;;;;3.37;1.97;;;;;;;;;;6187420;28;20106;-70
2022/08/10 07:06:23;;;;;;;4.47;1.95;;;;;;;;;;6187046;28;20109;-70
2022/08/10 07:09:25;;;;;;;3.33;2.00;;;;;;;;;;6184526;28;20063;-68
2022/08/10 07:12:27;;;;;;;12.02;2.70;;;;;;;;;;6183026;28;20283;-68
2022/08/10 07:15:29;;;;;;;7.10;2.30;;;;;;;;;;6185312;28;20054;-67
2022/08/10 07:18:31;;;;;;;4.15;2.08;;;;;;;;;;6184527;28;20051;-69
2022/08/10 07:21:35;;;;;;;3.63;2.35;;;;;;;;;;6183471;28;20058;-69
2022/08/10 07:24:38;;;;;;;3.20;2.17;;;;;;;;;;6182433;28;20340;-68
2022/08/10 07:27:41;;;;;;;4.53;2.30;;;;;;;;;;6184379;28;20325;-68
2022/08/10 07:30:43;;;;;;;4.65;2.03;;;;;;;;;;6183371;28;20063;-72
2022/08/10 07:33:46;;;;;;;4.10;2.45;;;;;;;;;;6182521;28;20047;-68
2022/08/10 07:36:51;;;;;;;10.57;2.90;;;;;;;;;;6182895;28;20093;-68
2022/08/10 07:39:53;;;;;;;8.05;2.60;;;;;;;;;;6183770;28;20055;-68
2022/08/10 07:42:58;;;;;;;7.18;2.55;;;;;;;;;;6182671;28;20337;-68
2022/08/10 07:46:01;;;;;;;4.70;2.72;;;;;;;;;;6182327;28;20046;-69
2022/08/10 07:49:06;;;;;;;5.57;2.38;;;;;;;;;;6183929;28;20101;-71
2022/08/10 07:52:10;;;;;;;4.45;3.17;;;;;;;;;;6183784;28;20316;-70
2022/08/10 07:55:15;;;;;;;5.80;2.42;;;;;;;;;;6184221;28;20062;-68
2022/08/10 07:58:17;;;;;;;5.65;2.22;;;;;;;;;;6182186;28;20357;-67
2022/08/10 08:01:21;;;;;;;5.35;2.65;;;;;;;;;;6180688;28;20070;-68
2022/08/10 08:04:24;;;;;;;6.60;2.40;;;;;;;;;;6182362;28;20101;-68
2022/08/10 08:07:27;;;;;;;5.60;2.60;;;;;;;;;;6184250;28;20254;-68
2022/08/10 08:10:30;;;;;;;6.25;2.40;;;;;;;;;;6183644;28;20053;-68
2022/08/10 08:13:32;;;;;;;7.15;2.65;;;;;;;;;;6181969;28;20061;-69
2022/08/10 08:16:35;;;;;;;4.83;2.20;;;;;;;;;;6182223;28;20115;-71
2022/08/10 08:19:37;;;;;;;5.28;2.40;;;;;;;;;;6183338;28;20086;-68
2022/08/10 08:22:41;;;;;;;3.55;2.17;;;;;;;;;;6181340;28;20049;-69
2022/08/10 08:25:43;;;;;;;6.70;3.00;;;;;;;;;;6180381;28;20050;-69
2022/08/10 08:28:47;;;;;;;4.07;2.20;;;;;;;;;;6181062;28;20049;-68
2022/08/10 08:31:49;;;;;;;7.57;2.53;;;;;;;;;;6182592;28;20074;-70
2022/08/10 08:34:54;;;;;;;4.63;2.38;;;;;;;;;;6181253;28;20043;-69
2022/08/10 08:37:58;;;;;;;6.80;2.20;;;;;;;;;;6185489;28;20054;-69
2022/08/10 08:41:06;;;;;;;5.93;2.30;;;;;;;;;;6179037;28;20051;-70
2022/08/10 08:44:14;;;;;;;4.70;2.50;;;;;;;;;;6178084;28;20249;-69
2022/08/10 08:47:32;;;;;;;7.88;2.30;;;;;;;;;;6180971;28;20124;-68
2022/08/10 08:50:44;;;;;;;8.48;3.00;;;;;;;;;;6181547;28;20214;-69
2022/08/10 08:53:58;;;;;;;5.30;2.53;;;;;;;;;;6181844;28;20094;-68
2022/08/10 08:57:05;;;;;;;6.22;2.47;;;;;;;;;;6181575;28;20054;-70
2022/08/10 09:00:12;;;;;;;4.55;2.40;;;;;;;;;;6180225;28;20254;-69
2022/08/10 09:03:49;;;;;;;4.47;2.33;;;;;;;;;;6180202;28;20913;-69
2022/08/10 09:07:02;;;;;;;6.28;2.40;;;;;;;;;;6167290;28;20038;-68
2022/08/10 09:10:12;;;;;;;8.07;2.38;;;;;;;;;;6180751;28;20058;-68
2022/08/10 09:13:25;;;;;;;8.68;2.30;;;;;;;;;;6182970;28;20146;-68
2022/08/10 09:16:31;;;;;;;6.38;2.60;;;;;;;;;;6181839;28;20421;-69
2022/08/10 09:19:41;;;;;;;6.28;2.38;;;;;;;;;;6181728;28;20054;-69
2022/08/10 09:22:47;;;;;;;6.65;2.20;;;;;;;;;;6183886;28;20051;-69
2022/08/10 09:25:53;;;;;;;6.90;2.40;;;;;;;;;;6181980;28;20062;-72
2022/08/10 09:28:58;;;;;;;5.45;2.00;;;;;;;;;;6186259;28;20074;-69
2022/08/10 09:32:07;;;;;;;4.63;2.10;;;;;;;;;;6184589;28;20097;-70
2022/08/10 09:35:13;;;;;;;5.40;2.28;;;;;;;;;;6183955;28;20093;-70
2022/08/10 09:38:21;;;;;;;6.95;2.30;;;;;;;;;;6185040;28;20054;-69
2022/08/10 09:41:35;;;;;;;6.53;2.33;;;;;;;;;;6184369;28;20046;-69
2022/08/10 09:44:43;;;;;;;5.63;2.05;;;;;;;;;;6184343;28;20049;-70
2022/08/10 09:47:56;;;;;;;7.30;2.20;;;;;;;;;;6184148;28;20047;-70
2022/08/10 09:51:05;;;;;;;8.30;3.17;;;;;;;;;;6185220;28;20085;-69
2022/08/10 09:54:17;;;;;;;5.70;2.25;;;;;;;;;;6183563;28;20047;-69
2022/08/10 09:57:37;;;;;;;4.85;2.20;;;;;;;;;;6182660;28;20057;-69
2022/08/10 10:00:42;;;;;;;6.30;2.50;;;;;;;;;;6182717;28;20050;-69
2022/08/10 10:03:49;;;;;;;3.47;2.08;;;;;;;;;;6184220;28;20054;-69
2022/08/10 10:06:54;;;;;;;6.85;2.08;;;;;;;;;;6188104;28;20066;-69
2022/08/10 10:10:01;;;;;;;8.88;2.70;;;;;;;;;;6184685;28;20364;-71
2022/08/10 10:13:08;;;;;;;7.55;2.03;;;;;;;;;;6183357;28;20223;-69
2022/08/10 10:16:24;;;;;;;3.90;2.33;;;;;;;;;;6181128;28;20050;-69
2022/08/10 10:19:35;;;;;;;6.97;2.00;;;;;;;;;;6135690;28;1243975;-70
2022/08/10 10:22:42;;;;;;;8.82;2.50;;;;;;;;;;6180366;28;20055;-69
2022/08/10 10:25:51;;;;;;;5.47;2.05;;;;;;;;;;6178477;28;20069;-69
2022/08/10 10:29:04;;;;;;;4.95;2.00;;;;;;;;;;6175755;28;20304;-71
2022/08/10 10:32:16;;;;;;;6.03;2.17;;;;;;;;;;6182921;28;20327;-69
2022/08/10 10:35:23;;;;;;;6.72;2.00;;;;;;;;;;6186391;28;20057;-72
2022/08/10 10:38:27;;;;;;;4.93;2.25;;;;;;;;;;6184213;28;20065;-70
2022/08/10 10:41:35;;;;;;;3.38;1.80;;;;;;;;;;6183993;28;20066;-70
2022/08/10 10:44:46;;;;;;;4.00;1.70;;;;;;;;;;6184191;28;20234;-70
2022/08/10 10:47:55;;;;;;;;;;;;;;;;;;6185818;28;20245;-69
2022/08/10 10:51:03;;;;;;;5.63;2.25;;;;;;;;;;6186015;28;20219;-69
2022/08/10 10:54:09;;;;;;;3.83;2.15;;;;;;;;;;6183927;28;20053;-69
2022/08/10 10:57:15;;;;;;;4.43;1.90;;;;;;;;;;6183967;28;20352;-69
2022/08/10 11:00:21;;;;;;;5.82;1.67;;;;;;;;;;6185807;28;20058;-70
2022/08/10 11:03:48;;;;;;;2.30;1.50;;;;;;;;;;6185594;28;20046;-69
2022/08/10 11:06:59;;;;;;;5.55;2.22;;;;;;;;;;6186556;28;20221;-71
2022/08/10 11:10:05;;;;;;;3.92;2.00;;;;;;;;;;6184981;28;20047;-70
2022/08/10 11:13:22;;;;;;;3.05;1.67;;;;;;;;;;6186054;28;20070;-70
2022/08/10 11:16:30;;;;;;;5.07;1.70;;;;;;;;;;6184064;28;20325;-69
2022/08/10 11:19:45;;;;;;;5.60;1.95;;;;;;;;;;6180662;28;20379;-70
2022/08/10 11:22:57;;;;;;;4.40;1.98;;;;;;;;;;6182692;28;20326;-70
2022/08/10 11:26:03;;;;;;;3.53;2.00;;;;;;;;;;6185494;28;20042;-70
2022/08/10 11:29:08;;;;;;;3.60;2.10;;;;;;;;;;6183709;28;20055;-69
2022/08/10 11:32:17;;;;;;;5.70;2.17;;;;;;;;;;6183084;28;20336;-70
2022/08/10 11:35:25;;;;;;;4.68;2.28;;;;;;;;;;6187239;28;20332;-72
2022/08/10 11:38:32;;;;;;;9.15;2.03;;;;;;;;;;6184598;28;20058;-69
2022/08/10 11:41:40;;;;;;;4.13;2.45;;;;;;;;;;6181723;28;20055;-70
2022/08/10 11:44:46;;;;;;;3.55;2.20;;;;;;;;;;6184255;28;20054;-69
2022/08/10 11:47:53;;;;;;;3.13;1.90;;;;;;;;;;6183115;28;20933;-70
2022/08/10 11:50:58;;;;;;;4.80;2.00;;;;;;;;;;6183332;28;20137;-70
2022/08/10 11:54:05;;;;;;;7.22;1.92;;;;;;;;;;6183264;28;20042;-70
2022/08/10 11:57:08;;;;;;;1.92;1.70;;;;;;;;;;6181961;28;20050;-69
2022/08/10 12:00:10;;;;;;;2.85;1.58;;;;;;;;;;6184272;28;20059;-69
2022/08/10 12:03:13;;;;;;;4.28;1.90;;;;;;;;;;6183021;28;20058;-70
2022/08/10 12:06:17;;;;;;;4.10;1.90;;;;;;;;;;6181479;28;20043;-69
2022/08/10 12:09:19;;;;;;;4.32;2.05;;;;;;;;;;6181563;28;20466;-67
2022/08/10 12:12:22;;;;;;;2.63;1.80;;;;;;;;;;6181016;28;20400;-69
2022/08/10 12:15:28;;;;;;;2.03;1.65;;;;;;;;;;6181029;28;20061;-70
2022/08/10 12:18:36;;;;;;;2.05;1.73;;;;;;;;;;6182225;28;20106;-67
2022/08/10 12:21:41;;;;;;;3.55;1.80;;;;;;;;;;6180008;28;20282;-69
2022/08/10 12:24:53;;;;;;;3.80;1.88;;;;;;;;;;6181613;28;20055;-67
2022/08/10 12:28:00;;;;;;;2.78;1.75;;;;;;;;;;6180474;28;20062;-68
2022/08/10 12:31:02;;;;;;;1.95;1.63;;;;;;;;;;6182040;28;20101;-71
2022/08/10 12:34:16;;;;;;;4.10;1.83;;;;;;;;;;6180656;28;20043;-70
2022/08/10 12:37:21;;;;;;;2.30;1.70;;;;;;;;;;6183247;28;20148;-69
2022/08/10 12:40:26;;;;;;;3.55;2.03;;;;;;;;;;6180445;28;20047;-69
2022/08/10 12:43:32;;;;;;;3.65;2.00;;;;;;;;;;6181618;28;20054;-67
2022/08/10 12:46:39;;;;;;;7.47;2.67;;;;;;;;;;6181728;28;20043;-69
2022/08/10 12:49:48;;;;;;;4.90;2.25;;;;;;;;;;6181416;28;20396;-71
2022/08/10 12:52:55;;;;;;;4.70;1.90;;;;;;;;;;6182160;28;20367;-67
2022/08/10 12:56:00;;;;;;;2.75;1.77;;;;;;;;;;6181519;28;20203;-70
2022/08/10 12:59:05;;;;;;;4.65;1.83;;;;;;;;;;6180572;28;20309;-69
2022/08/10 13:02:07;;;;;;;7.47;2.53;;;;;;;;;;6180415;28;20230;-70
2022/08/10 13:05:12;;;;;;;3.10;2.00;;;;;;;;;;6180840;28;20050;-69
2022/08/10 13:11:34;;;;;;;3.75;2.00;;;;;;;;;;6179240;28;20047;-70
2022/08/10 13:14:40;;;;;;;3.42;2.05;;;;;;;;;;6182880;28;20233;-69
2022/08/10 13:17:42;;;;;;;6.63;1.92;;;;;;;;;;6181266;28;20062;-71
2022/08/10 13:20:45;;;;;;;2.85;1.98;;;;;;;;;;6180394;28;20058;-69
2022/08/10 13:23:51;;;;;;;4.00;2.00;;;;;;;;;;6183155;28;20051;-69
2022/08/10 13:27:01;;;;;;;6.90;2.13;;;;;;;;;;6179846;28;20241;-70
2022/08/10 13:30:06;;;;;;;5.00;1.88;;;;;;;;;;6182728;28;20241;-70
2022/08/10 13:33:09;;;;;;;4.22;1.75;;;;;;;;;;6179486;28;21661;-70
2022/08/10 13:36:13;;;;;;;2.25;2.03;;;;;;;;;;6183864;28;20050;-71
2022/08/10 13:39:18;;;;;;;4.15;1.90;;;;;;;;;;6182618;28;20237;-74
2022/08/10 13:42:21;;;;;;;3.53;2.25;;;;;;;;;;6181167;28;20724;-68
2022/08/10 13:45:25;;;;;;;3.53;1.83;;;;;;;;;;6180638;28;20277;-69
2022/08/10 13:48:26;;;;;;;4.70;2.15;;;;;;;;;;6183810;28;20050;-70
2022/08/10 13:51:31;;;;;;;5.50;2.10;;;;;;;;;;6181159;28;20061;-70
2022/08/10 13:54:36;;;;;;;3.25;1.90;;;;;;;;;;6182630;28;20107;-70
2022/08/10 13:57:39;;;;;;;5.30;1.90;;;;;;;;;;6180509;28;20277;-70
2022/08/10 14:00:41;;;;;;;6.13;2.30;;;;;;;;;;6182437;28;20059;-70
2022/08/10 14:03:44;;;;;;;5.70;2.10;;;;;;;;;;6180604;28;20047;-69
2022/08/10 14:06:54;;;;;;;4.75;1.90;;;;;;;;;;6183943;28;20125;-69
2022/08/10 14:10:00;;;;;;;8.30;2.58;;;;;;;;;;6186093;28;20081;-72
2022/08/10 14:13:02;;;;;;;3.88;1.90;;;;;;;;;;6184478;28;20085;-69
2022/08/10 14:16:06;;;;;;;5.40;1.92;;;;;;;;;;6186402;28;20096;-68
2022/08/10 14:19:12;;;;;;;3.00;1.90;;;;;;;;;;6184991;28;20046;-69
2022/08/10 14:22:19;;;;;;;2.92;1.83;;;;;;;;;;6184024;28;20054;-71
2022/08/10 14:25:20;;;;;;;7.70;2.08;;;;;;;;;;6183688;28;20110;-72
2022/08/10 14:28:26;;;;;;;3.60;2.08;;;;;;;;;;6185511;28;20050;-70
2022/08/10 14:31:32;;;;;;;4.30;1.80;;;;;;;;;;6184947;28;20331;-70
2022/08/10 14:34:36;;;;;;;2.63;1.90;;;;;;;;;;6189348;28;20043;-69
2022/08/10 14:37:43;;;;;;;4.15;1.90;;;;;;;;;;6185377;28;20054;-69
2022/08/10 14:40:49;;;;;;;2.75;1.80;;;;;;;;;;6184970;28;20047;-71
2022/08/10 14:43:54;;;;;;;3.50;1.67;;;;;;;;;;6184775;28;20329;-70
2022/08/10 14:46:58;;;;;;;4.63;2.03;;;;;;;;;;6186201;28;20100;-71
2022/08/10 14:50:00;;;;;;;2.85;2.00;;;;;;;;;;6182207;28;20058;-70
2022/08/10 14:53:06;;;;;;;7.55;2.13;;;;;;;;;;6183970;28;20089;-71
2022/08/10 14:56:08;;;;;;;4.65;2.00;;;;;;;;;;6183915;28;20050;-70
2022/08/10 14:59:11;;;;;;;5.95;1.95;;;;;;;;;;6184424;28;20051;-71
2022/08/10 15:02:17;;;;;;;3.40;1.77;;;;;;;;;;6183524;28;20211;-70
2022/08/10 15:05:20;;;;;;;3.08;1.90;;;;;;;;;;6184672;28;20061;-70
2022/08/10 15:08:25;;;;;;;2.20;1.70;;;;;;;;;;6186096;28;20368;-71
2022/08/10 15:11:31;;;;;;;4.35;1.90;;;;;;;;;;6186190;28;20823;-71
2022/08/10 15:14:36;;;;;;;5.15;1.98;;;;;;;;;;6183196;28;20329;-69
2022/08/10 15:17:41;;;;;;;5.13;1.90;;;;;;;;;;6182133;28;20321;-69
2022/08/10 15:20:44;;;;;;;4.72;2.20;;;;;;;;;;6179755;28;20101;-70
2022/08/10 15:23:53;;;;;;;2.90;1.90;;;;;;;;;;6183707;28;20089;-69
2022/08/10 15:26:55;;;;;;;2.65;2.17;;;;;;;;;;6183219;28;20042;-71
2022/08/10 15:29:57;;;;;;;5.55;2.20;;;;;;;;;;6183598;28;20105;-69
2022/08/10 15:39:46;;;;;;;2.55;1.88;;;;;;;;;;6183138;28;20110;-71
2022/08/10 15:42:53;;;;;;;3.25;1.88;;;;;;;;;;6181871;28;20061;-70
2022/08/10 15:46:02;;;;;;;3.13;2.05;;;;;;;;;;6182656;28;20384;-70
2022/08/10 15:49:09;;;;;;;6.10;2.00;;;;;;;;;;6181138;28;20054;-73
2022/08/10 15:52:14;;;;;;;3.55;1.90;;;;;;;;;;6183218;28;20046;-69
2022/08/10 15:55:22;;;;;;;6.70;2.30;;;;;;;;;;6183830;28;20972;-69
2022/08/10 15:58:28;;;;;;;6.25;2.10;;;;;;;;;;6181251;28;20050;-69
2022/08/10 16:01:35;;;;;;;6.20;2.22;;;;;;;;;;6180811;28;20097;-73
2022/08/10 16:04:46;;;;;;;3.85;2.17;;;;;;;;;;6181865;28;20065;-69
2022/08/10 16:07:50;;;;;;;2.85;2.00;;;;;;;;;;6179753;28;20321;-70
2022/08/10 16:10:56;;;;;;;5.10;2.10;;;;;;;;;;6154456;28;20118;-70
2022/08/10 16:13:59;;;;;;;4.05;2.33;;;;;;;;;;6182555;28;20237;-69
2022/08/10 16:17:01;;;;;;;6.60;2.53;;;;;;;;;;6183922;28;20054;-70
2022/08/10 16:20:04;;;;;;;3.83;1.98;;;;;;;;;;6180127;28;20122;-69
2022/08/10 16:23:09;;;;;;;5.18;2.35;;;;;;;;;;6180722;28;20057;-70
2022/08/10 16:26:15;;;;;;;4.65;2.00;;;;;;;;;;6181679;28;20252;-69
2022/08/10 16:29:20;;;;;;;4.03;2.55;;;;;;;;;;6181977;28;20299;-69
2022/08/10 16:32:22;;;;;;;5.50;2.20;;;;;;;;;;6181142;28;20063;-70
2022/08/10 16:35:24;;;;;;;5.45;2.38;;;;;;;;;;6183325;28;20054;-69
2022/08/10 16:38:26;;;;;;;3.53;2.17;;;;;;;;;;6182671;28;20245;-69
2022/08/10 16:41:30;;;;;;;3.42;2.30;;;;;;;;;;6181591;28;20237;-70
2022/08/10 16:44:37;;;;;;;4.55;2.00;;;;;;;;;;6180918;28;20246;-72
2022/08/10 16:47:45;;;;;;;4.30;1.83;;;;;;;;;;6182473;28;20065;-72
2022/08/10 16:50:51;;;;;;;4.05;2.13;;;;;;;;;;6187255;28;20927;-69
2022/08/10 16:53:53;;;;;;;2.53;1.90;;;;;;;;;;6181695;28;20236;-69
2022/08/10 16:57:01;;;;;;;5.45;2.47;;;;;;;;;;6181354;28;20046;-70
2022/08/10 17:00:06;;;;;;;5.10;2.13;;;;;;;;;;6182244;28;20073;-69
2022/08/10 17:03:10;;;;;;;3.70;2.10;;;;;;;;;;6180772;28;20345;-70
2022/08/10 17:06:14;;;;;;;9.32;2.20;;;;;;;;;;6189016;28;20105;-69
2022/08/10 17:09:18;;;;;;;4.80;2.15;;;;;;;;;;6182308;28;20053;-71
2022/08/10 17:12:25;;;;;;;9.82;2.53;;;;;;;;;;6180874;28;20113;-69
2022/08/10 17:15:27;;;;;;;4.35;2.05;;;;;;;;;;6180346;28;20039;-69
2022/08/10 17:18:31;;;;;;;3.17;1.98;;;;;;;;;;6180334;28;20046;-69
2022/08/10 17:21:36;;;;;;;4.35;2.42;;;;;;;;;;6178649;28;20050;-69
2022/08/10 17:24:42;;;;;;;2.90;2.20;;;;;;;;;;6182391;28;20051;-69
2022/08/10 17:27:46;;;;;;;5.47;2.30;;;;;;;;;;6180908;28;20054;-71
2022/08/10 17:30:51;;;;;;;4.82;2.47;;;;;;;;;;6179706;28;20321;-69
2022/08/10 17:33:54;;;;;;;3.03;1.95;;;;;;;;;;6177909;28;20082;-69
2022/08/10 17:36:57;;;;;;;3.40;2.33;;;;;;;;;;6181214;28;20045;-69
2022/08/10 17:40:09;;;;;;;6.22;2.28;;;;;;;;;;6180817;28;20322;-69
2022/08/10 17:43:13;;;;;;;4.05;1.90;;;;;;;;;;6187740;28;20042;-68
2022/08/10 17:46:15;;;;;;;4.13;2.03;;;;;;;;;;6185455;28;20063;-69
2022/08/10 17:49:19;;;;;;;3.28;1.90;;;;;;;;;;6187233;28;21260;-69
2022/08/10 17:52:22;;;;;;;4.80;2.00;;;;;;;;;;6185653;28;20050;-69
2022/08/10 17:55:23;;;;;;;;;;;;;;;;;;6185686;28;20097;-68
2022/08/10 17:58:27;;;;;;;3.58;1.88;;;;;;;;;;6187719;28;19922;-69
2022/08/10 18:01:33;;;;;;;5.05;1.83;;;;;;;;;;6184614;28;20322;-70
2022/08/10 18:04:37;;;;;;;6.50;2.40;;;;;;;;;;6186271;28;20054;-69
2022/08/10 18:07:44;;;;;;;5.63;2.00;;;;;;;;;;6187496;28;20052;-69
2022/08/10 18:10:46;;;;;;;5.13;2.15;;;;;;;;;;6187458;28;20325;-69
2022/08/10 18:13:52;;;;;;;3.10;2.10;;;;;;;;;;6187046;28;20065;-69
2022/08/10 18:16:54;;;;;;;9.57;2.20;;;;;;;;;;6184685;28;20236;-69
2022/08/10 18:19:58;;;;;;;3.10;2.08;;;;;;;;;;6182700;28;20234;-69
2022/08/10 18:23:01;;;;;;;4.93;1.95;;;;;;;;;;6186047;28;20046;-70
2022/08/10 18:26:05;;;;;;;4.72;2.38;;;;;;;;;;6185430;28;20054;-70
2022/08/10 18:29:11;;;;;;;4.10;1.90;;;;;;;;;;6184718;28;20051;-69
2022/08/10 18:32:14;;;;;;;2.88;1.90;;;;;;;;;;6184284;28;20285;-70
2022/08/10 18:35:18;;;;;;;3.58;2.10;;;;;;;;;;6187620;28;20059;-69
2022/08/10 18:38:20;;;;;;;4.68;1.95;;;;;;;;;;6185205;28;20059;-70
2022/08/10 18:41:28;;;;;;;4.88;2.80;;;;;;;;;;6188237;28;20061;-69
2022/08/10 18:44:34;;;;;;;7.38;2.05;;;;;;;;;;6184741;28;20050;-69